createdAt,value
2018-07-23T00:02:09.899Z,10.73
2018-07-23T00:04:38.432Z,9.53
2018-07-23T00:07:06.913Z,11.53
2018-07-23T00:09:35.300Z,11.30
2018-07-23T00:12:03.690Z,10.43
2018-07-23T00:14:32.076Z,11.83
2018-07-23T00:17:00.596Z,11.77
2018-07-23T00:19:29.174Z,13.37
2018-07-23T00:21:57.601Z,12.17
2018-07-23T00:24:25.964Z,13.77
2018-07-23T00:26:54.337Z,13.07
2018-07-23T00:29:23.026Z,11.93
2018-07-23T00:31:51.129Z,11.83
2018-07-23T00:34:19.553Z,12.87
2018-07-23T00:36:47.927Z,12.97
2018-07-23T00:39:16.376Z,12.27
2018-07-23T00:41:44.820Z,12.80
2018-07-23T00:44:13.182Z,12.40
2018-07-23T00:46:41.533Z,10.90
2018-07-23T00:49:09.912Z,11.80
2018-07-23T00:51:38.407Z,11.43
2018-07-23T00:54:06.793Z,11.23
2018-07-23T00:56:35.160Z,12.00
2018-07-23T00:59:03.752Z,10.80
2018-07-23T01:01:32.151Z,10.80
2018-07-23T01:04:00.543Z,11.47
2018-07-23T01:06:28.614Z,9.40
2018-07-23T01:08:57.575Z,10.23
2018-07-23T01:11:25.957Z,10.60
2018-07-23T01:13:54.323Z,10.80
2018-07-23T01:16:22.720Z,10.20
2018-07-23T01:18:51.100Z,11.83
2018-07-23T01:21:19.472Z,10.60
2018-07-23T01:23:48.017Z,9.87
2018-07-23T01:26:16.391Z,9.93
2018-07-23T01:28:45.190Z,9.13
2018-07-23T01:31:13.545Z,8.40
2018-07-23T01:33:41.948Z,8.67
2018-07-23T01:36:10.773Z,9.10
2018-07-23T01:38:39.228Z,7.93
2018-07-23T01:41:08.240Z,10.60
2018-07-23T01:43:36.610Z,8.63
2018-07-23T01:46:04.979Z,7.40
2018-07-23T01:48:33.572Z,7.93
2018-07-23T01:51:01.945Z,7.40
2018-07-23T01:53:30.324Z,8.07
2018-07-23T01:55:59.583Z,7.17
2018-07-23T01:58:28.193Z,8.60
2018-07-23T02:00:56.664Z,7.20
2018-07-23T02:03:25.425Z,7.67
2018-07-23T02:05:53.801Z,6.87
2018-07-23T02:08:22.149Z,7.10
2018-07-23T02:10:51.124Z,7.40
2018-07-23T02:13:19.548Z,6.83
2018-07-23T02:15:47.923Z,6.90
2018-07-23T02:18:16.336Z,8.17
2018-07-23T02:20:45.145Z,5.73
2018-07-23T02:23:13.520Z,6.13
2018-07-23T02:25:42.160Z,6.40
2018-07-23T02:28:10.512Z,6.10
2018-07-23T02:30:38.887Z,5.90
2018-07-23T02:33:07.242Z,5.70
2018-07-23T02:35:36.555Z,5.30
2018-07-23T02:38:04.980Z,8.50
2018-07-23T02:40:33.458Z,5.70
2018-07-23T02:43:01.806Z,5.37
2018-07-23T02:45:30.414Z,5.30
2018-07-23T02:47:58.916Z,7.23
2018-07-23T02:50:27.409Z,5.40
2018-07-23T02:52:55.857Z,5.50
2018-07-23T02:55:24.255Z,7.10
2018-07-23T02:57:52.657Z,6.07
2018-07-23T03:00:21.715Z,5.23
2018-07-23T03:02:50.107Z,8.83
2018-07-23T03:05:18.316Z,5.10
2018-07-23T03:07:46.731Z,8.47
2018-07-23T03:10:15.161Z,6.00
2018-07-23T03:12:44.049Z,5.37
2018-07-23T03:15:12.588Z,5.60
2018-07-23T03:17:41.467Z,5.10
2018-07-23T03:20:09.926Z,5.20
2018-07-23T03:22:38.608Z,5.67
2018-07-23T03:25:06.977Z,6.40
2018-07-23T03:27:35.340Z,4.93
2018-07-23T03:30:03.713Z,5.43
2018-07-23T03:32:32.194Z,5.00
2018-07-23T03:35:00.543Z,5.10
2018-07-23T03:37:29.559Z,5.30
2018-07-23T03:39:57.952Z,5.10
2018-07-23T03:42:26.099Z,4.80
2018-07-23T03:44:54.470Z,4.97
2018-07-23T03:47:22.856Z,5.10
2018-07-23T03:49:51.224Z,5.07
2018-07-23T03:52:19.896Z,5.73
2018-07-23T03:54:48.259Z,7.20
2018-07-23T03:57:16.624Z,5.20
2018-07-23T03:59:44.995Z,4.97
2018-07-23T04:02:13.518Z,4.73
2018-07-23T04:04:42.692Z,5.60
2018-07-23T04:07:11.047Z,5.93
2018-07-23T04:09:39.549Z,6.07
2018-07-23T04:12:08.252Z,5.90
2018-07-23T04:14:36.716Z,5.70
2018-07-23T04:17:06.280Z,5.43
2018-07-23T04:19:34.788Z,5.27
2018-07-23T04:22:03.555Z,5.83
2018-07-23T04:24:31.627Z,5.43
2018-07-23T04:27:00.536Z,5.23
2018-07-23T04:29:28.879Z,8.90
2018-07-23T04:31:57.367Z,5.40
2018-07-23T04:34:25.752Z,5.87
2018-07-23T04:36:54.351Z,6.03
2018-07-23T04:39:23.068Z,5.77
2018-07-23T04:41:51.560Z,5.87
2018-07-23T04:44:20.629Z,7.03
2018-07-23T04:46:49.128Z,7.03
2018-07-23T04:49:17.539Z,6.87
2018-07-23T04:51:46.296Z,9.53
2018-07-23T04:54:15.217Z,5.40
2018-07-23T04:56:44.346Z,5.77
2018-07-23T04:59:12.725Z,4.90
2018-07-23T05:01:41.268Z,5.20
2018-07-23T05:04:09.770Z,5.47
2018-07-23T05:06:38.430Z,5.03
2018-07-23T05:09:10.842Z,5.03
2018-07-23T05:11:39.529Z,6.17
2018-07-23T05:14:08.721Z,5.87
2018-07-23T05:16:37.210Z,5.40
2018-07-23T05:19:05.637Z,7.63
2018-07-23T05:21:34.056Z,7.10
2018-07-23T05:24:03.252Z,6.43
2018-07-23T05:26:31.659Z,5.83
2018-07-23T05:28:59.944Z,6.00
2018-07-23T05:31:35.059Z,7.20
2018-07-23T05:34:03.447Z,6.17
2018-07-23T05:36:32.000Z,6.83
2018-07-23T05:39:00.423Z,5.90
2018-07-23T05:41:28.832Z,8.20
2018-07-23T05:43:57.284Z,6.53
2018-07-23T05:46:25.644Z,6.67
2018-07-23T05:48:54.147Z,6.00
2018-07-23T05:51:22.491Z,5.90
2018-07-23T05:53:51.580Z,8.53
2018-07-23T05:56:20.071Z,12.03
2018-07-23T05:58:48.469Z,10.33
2018-07-23T06:01:17.024Z,12.33
2018-07-23T06:03:45.436Z,12.27
2018-07-23T06:06:13.803Z,16.43
2018-07-23T06:08:42.236Z,10.57
2018-07-23T06:11:10.678Z,13.53
2018-07-23T06:13:39.660Z,13.07
2018-07-23T06:16:08.105Z,13.67
2018-07-23T06:18:37.181Z,12.33
2018-07-23T06:21:05.732Z,18.50
2018-07-23T06:23:34.462Z,12.23
2018-07-23T06:26:02.881Z,11.90
2018-07-23T06:28:31.237Z,15.60
2018-07-23T06:30:59.644Z,14.17
2018-07-23T06:33:28.183Z,14.90
2018-07-23T06:35:56.603Z,12.80
2018-07-23T06:38:27.872Z,11.90
2018-07-23T06:40:56.404Z,12.47
2018-07-23T06:43:24.812Z,13.57
2018-07-23T06:45:53.668Z,9.20
2018-07-23T06:48:22.633Z,11.43
2018-07-23T06:50:51.013Z,10.97
2018-07-23T06:53:19.569Z,13.03
2018-07-23T06:55:47.937Z,14.10
2018-07-23T06:58:16.629Z,9.50
2018-07-23T07:00:45.015Z,13.23
2018-07-23T07:03:13.578Z,15.20
2018-07-23T07:05:41.972Z,13.90
2018-07-23T07:08:11.952Z,14.10
2018-07-23T07:10:40.404Z,10.57
2018-07-23T07:13:08.916Z,12.40
2018-07-23T07:15:37.264Z,13.37
2018-07-23T07:18:05.656Z,12.77
2018-07-23T07:20:34.024Z,11.57
2018-07-23T07:23:02.379Z,10.80
2018-07-23T07:25:30.784Z,12.77
2018-07-23T07:27:59.147Z,12.37
2018-07-23T07:30:27.556Z,17.27
2018-07-23T07:32:56.281Z,10.80
2018-07-23T07:35:24.641Z,19.80
2018-07-23T07:37:53.356Z,12.43
2018-07-23T07:40:21.787Z,11.73
2018-07-23T07:42:50.199Z,14.83
2018-07-23T07:45:18.675Z,10.70
2018-07-23T07:47:47.179Z,12.27
2018-07-23T07:50:15.569Z,9.73
2018-07-23T07:52:44.425Z,10.50
2018-07-23T07:55:12.968Z,10.27
2018-07-23T07:57:41.352Z,9.97
2018-07-23T08:00:09.731Z,9.57
2018-07-23T08:02:38.114Z,13.53
2018-07-23T08:05:07.128Z,10.73
2018-07-23T08:07:35.548Z,10.63
2018-07-23T08:10:03.972Z,9.60
2018-07-23T08:12:32.381Z,11.87
2018-07-23T08:15:00.836Z,13.93
2018-07-23T08:17:29.236Z,13.37
2018-07-23T08:19:58.055Z,13.13
2018-07-23T08:22:26.452Z,12.17
2018-07-23T08:24:55.268Z,11.43
2018-07-23T08:27:24.475Z,17.50
2018-07-23T08:29:53.332Z,11.50
2018-07-23T08:32:22.623Z,10.63
2018-07-23T08:34:51.041Z,12.13
2018-07-23T08:37:19.809Z,10.57
2018-07-23T08:39:48.233Z,7.77
2018-07-23T08:42:16.780Z,7.90
2018-07-23T08:44:45.136Z,9.23
2018-07-23T08:47:13.716Z,8.73
2018-07-23T08:49:42.140Z,10.93
2018-07-23T08:52:10.547Z,7.30
2018-07-23T08:54:38.912Z,7.70
2018-07-23T08:57:07.308Z,5.50
2018-07-23T08:59:36.460Z,7.53
2018-07-23T09:02:04.831Z,6.50
2018-07-23T09:04:33.220Z,4.17
2018-07-23T09:07:01.997Z,5.77
2018-07-23T09:09:30.671Z,7.47
2018-07-23T09:11:59.259Z,5.20
2018-07-23T09:14:27.704Z,4.80
2018-07-23T09:16:56.212Z,4.83
2018-07-23T09:19:25.090Z,7.37
2018-07-23T09:21:54.028Z,7.30
2018-07-23T09:24:22.755Z,5.97
2018-07-23T09:26:51.143Z,4.87
2018-07-23T09:29:20.955Z,4.87
2018-07-23T09:31:49.677Z,8.23
2018-07-23T09:34:18.068Z,4.63
2018-07-23T09:36:46.452Z,5.80
2018-07-23T09:39:15.378Z,5.50
2018-07-23T09:41:43.829Z,5.00
2018-07-23T09:44:12.300Z,5.67
2018-07-23T09:46:40.725Z,6.57
2018-07-23T09:49:10.096Z,7.27
2018-07-23T09:51:38.480Z,4.80
2018-07-23T09:54:07.599Z,6.57
2018-07-23T09:56:36.560Z,6.40
2018-07-23T09:59:05.057Z,7.27
2018-07-23T10:01:33.428Z,5.00
2018-07-23T10:04:01.849Z,5.97
2018-07-23T10:06:30.266Z,4.10
2018-07-23T10:08:58.898Z,6.87
2018-07-23T10:11:27.277Z,5.27
2018-07-23T10:13:55.659Z,6.23
2018-07-23T10:16:24.036Z,5.63
2018-07-23T10:18:52.416Z,6.77
2018-07-23T10:21:20.964Z,6.13
2018-07-23T10:23:49.344Z,4.40
2018-07-23T10:26:17.697Z,6.43
2018-07-23T10:28:46.063Z,5.70
2018-07-23T10:31:14.588Z,5.80
2018-07-23T10:33:42.982Z,6.93
2018-07-23T10:36:12.208Z,5.13
2018-07-23T10:38:40.703Z,5.17
2018-07-23T10:41:09.131Z,7.97
2018-07-23T10:43:37.472Z,4.70
2018-07-23T10:46:05.844Z,5.97
2018-07-23T10:48:34.971Z,4.80
2018-07-23T10:51:04.436Z,4.60
2018-07-23T10:53:32.743Z,4.90
2018-07-23T10:56:01.363Z,3.87
2018-07-23T10:58:29.739Z,5.97
2018-07-23T11:00:58.084Z,9.90
2018-07-23T11:03:26.448Z,4.33
2018-07-23T11:05:55.399Z,6.07
2018-07-23T11:08:23.763Z,3.63
2018-07-23T11:10:52.144Z,5.03
2018-07-23T11:13:20.592Z,3.90
2018-07-23T11:15:48.972Z,4.20
2018-07-23T11:18:17.662Z,4.77
2018-07-23T11:20:46.095Z,5.70
2018-07-23T11:23:14.446Z,4.30
2018-07-23T11:25:42.887Z,4.73
2018-07-23T11:28:11.283Z,4.30
2018-07-23T11:30:39.705Z,4.77
2018-07-23T11:33:09.100Z,5.03
2018-07-23T11:35:37.519Z,3.53
2018-07-23T11:38:06.943Z,6.20
2018-07-23T11:40:35.289Z,4.33
2018-07-23T11:43:03.690Z,5.00
2018-07-23T11:45:32.110Z,3.37
2018-07-23T11:48:00.619Z,3.73
2018-07-23T11:50:28.968Z,5.00
2018-07-23T11:52:57.637Z,6.73
2018-07-23T11:55:26.166Z,8.13
2018-07-23T11:57:54.609Z,4.40
2018-07-23T12:00:23.004Z,14.03
2018-07-23T12:02:51.432Z,5.57
2018-07-23T12:05:19.800Z,7.10
2018-07-23T12:07:48.198Z,4.43
2018-07-23T12:10:16.800Z,3.80
2018-07-23T12:12:45.222Z,4.57
2018-07-23T12:15:13.773Z,7.03
2018-07-23T12:17:42.148Z,5.47
2018-07-23T12:20:10.569Z,4.23
2018-07-23T12:22:38.978Z,6.00
2018-07-23T12:25:07.931Z,3.60
2018-07-23T12:27:36.315Z,3.17
2018-07-23T12:30:05.444Z,5.23
2018-07-23T12:32:33.914Z,5.13
2018-07-23T12:35:02.281Z,3.10
2018-07-23T12:37:31.271Z,6.20
2018-07-23T12:40:00.493Z,3.77
2018-07-23T12:42:28.900Z,3.37
2018-07-23T12:44:57.912Z,4.97
2018-07-23T12:47:26.488Z,5.13
2018-07-23T12:49:55.462Z,3.23
2018-07-23T12:52:23.943Z,3.93
2018-07-23T12:54:52.328Z,5.93
2018-07-23T12:57:20.729Z,3.77
2018-07-23T12:59:49.163Z,4.83
2018-07-23T13:02:18.399Z,3.57
2018-07-23T13:04:46.755Z,4.40
2018-07-23T13:07:15.472Z,3.87
2018-07-23T13:09:43.861Z,3.57
2018-07-23T13:12:12.211Z,4.93
2018-07-23T13:14:40.736Z,4.37
2018-07-23T13:17:09.174Z,6.10
2018-07-23T13:19:37.572Z,6.53
2018-07-23T13:22:06.132Z,4.13
2018-07-23T13:24:34.728Z,4.33
2018-07-23T13:27:03.347Z,3.83
2018-07-23T13:29:31.817Z,3.70
2018-07-23T13:32:00.500Z,3.60
2018-07-23T13:34:28.874Z,3.40
2018-07-23T13:36:57.431Z,4.83
2018-07-23T13:39:26.383Z,6.50
2018-07-23T13:41:54.748Z,5.03
2018-07-23T13:44:23.220Z,3.73
2018-07-23T13:46:51.723Z,6.73
2018-07-23T13:49:20.187Z,6.43
2018-07-23T13:51:48.785Z,5.77
2018-07-23T13:54:17.172Z,3.70
2018-07-23T13:56:45.507Z,3.47
2018-07-23T13:59:13.886Z,4.33
2018-07-23T14:01:42.291Z,4.67
2018-07-23T14:04:10.676Z,3.93
2018-07-23T14:06:39.156Z,5.20
2018-07-23T14:09:09.756Z,4.03
2018-07-23T14:11:38.279Z,3.37
2018-07-23T14:14:07.088Z,3.70
2018-07-23T14:16:35.717Z,4.50
2018-07-23T14:19:04.104Z,5.33
2018-07-23T14:21:32.711Z,4.33
2018-07-23T14:24:01.068Z,5.60
2018-07-23T14:26:29.492Z,6.37
2018-07-23T14:28:58.031Z,5.00
2018-07-23T14:31:26.416Z,9.33
2018-07-23T14:33:54.775Z,4.80
2018-07-23T14:36:23.709Z,6.23
2018-07-23T14:38:51.821Z,7.43
2018-07-23T14:41:20.294Z,6.67
2018-07-23T14:43:48.714Z,5.83
2018-07-23T14:46:17.027Z,4.00
2018-07-23T14:48:46.020Z,4.93
2018-07-23T14:51:14.944Z,7.03
2018-07-23T14:53:43.303Z,4.60
2018-07-23T14:56:12.012Z,6.30
2018-07-23T14:58:40.496Z,5.57
2018-07-23T15:01:09.077Z,4.53
2018-07-23T15:03:37.428Z,3.67
2018-07-23T15:06:05.833Z,5.23
2018-07-23T15:08:34.348Z,4.23
2018-07-23T15:11:02.941Z,4.07
2018-07-23T15:13:31.337Z,3.87
2018-07-23T15:15:59.862Z,4.10
2018-07-23T15:18:28.239Z,6.07
2018-07-23T15:20:56.619Z,5.33
2018-07-23T15:23:25.135Z,5.10
2018-07-23T15:25:53.552Z,5.97
2018-07-23T15:28:21.983Z,4.00
2018-07-23T15:30:50.376Z,7.70
2018-07-23T15:33:18.859Z,5.50
2018-07-23T15:35:47.265Z,5.33
2018-07-23T15:38:15.629Z,7.57
2018-07-23T15:40:44.261Z,4.63
2018-07-23T15:43:13.328Z,3.70
2018-07-23T15:45:41.864Z,5.00
2018-07-23T15:48:10.368Z,3.87
2018-07-23T15:50:38.765Z,6.40
2018-07-23T15:53:07.256Z,4.97
2018-07-23T15:55:35.632Z,5.00
2018-07-23T15:58:04.120Z,5.30
2018-07-23T16:00:32.527Z,5.43
2018-07-23T16:03:01.039Z,5.43
2018-07-23T16:05:29.725Z,4.43
2018-07-23T16:07:58.626Z,7.70
2018-07-23T16:10:26.979Z,3.63
2018-07-23T16:12:55.691Z,4.00
2018-07-23T16:15:24.339Z,6.00
2018-07-23T16:17:52.718Z,5.63
2018-07-23T16:20:21.345Z,4.10
2018-07-23T16:22:49.727Z,4.30
2018-07-23T16:25:18.223Z,5.13
2018-07-23T16:27:46.791Z,3.30
2018-07-23T16:30:15.339Z,3.27
2018-07-23T16:32:44.320Z,4.10
2018-07-23T16:35:13.342Z,4.47
2018-07-23T16:37:41.996Z,3.60
2018-07-23T16:40:10.842Z,5.20
2018-07-23T16:42:39.402Z,5.20
2018-07-23T16:45:07.763Z,3.83
2018-07-23T16:47:36.318Z,3.53
2018-07-23T16:50:05.620Z,4.50
2018-07-23T16:52:34.089Z,3.93
2018-07-23T16:55:02.588Z,3.40
2018-07-23T16:57:31.108Z,6.00
2018-07-23T16:59:59.576Z,3.30
2018-07-23T17:02:27.985Z,3.70
2018-07-23T17:04:56.380Z,4.17
2018-07-23T17:07:24.796Z,3.43
2018-07-23T17:09:53.147Z,3.87
2018-07-23T17:12:21.611Z,4.90
2018-07-23T17:14:50.143Z,5.27
2018-07-23T17:17:19.031Z,4.23
2018-07-23T17:19:47.395Z,3.40
2018-07-23T17:22:15.891Z,4.60
2018-07-23T17:24:44.432Z,4.40
2018-07-23T17:27:12.785Z,3.63
2018-07-23T17:29:41.165Z,3.50
2018-07-23T17:32:09.579Z,4.30
2018-07-23T17:34:38.153Z,5.10
2018-07-23T17:37:06.506Z,5.23
2018-07-23T17:39:34.871Z,3.20
2018-07-23T17:42:03.231Z,3.93
2018-07-23T17:44:31.655Z,3.53
2018-07-23T17:47:00.216Z,4.70
2018-07-23T17:49:28.591Z,5.23
2018-07-23T17:51:56.952Z,4.40
2018-07-23T17:54:25.883Z,4.00
2018-07-23T17:56:54.279Z,3.87
2018-07-23T17:59:22.363Z,3.47
2018-07-23T18:01:50.864Z,3.97
2018-07-23T18:04:19.231Z,4.33
2018-07-23T18:06:47.796Z,5.93
2018-07-23T18:09:16.378Z,6.50
2018-07-23T18:11:44.793Z,5.90
2018-07-23T18:14:13.315Z,4.67
2018-07-23T18:16:42.310Z,8.73
2018-07-23T18:19:10.900Z,3.87
2018-07-23T18:21:39.428Z,4.13
2018-07-23T18:24:07.793Z,3.87
2018-07-23T18:26:36.411Z,5.43
2018-07-23T18:29:04.899Z,7.57
2018-07-23T18:31:33.342Z,4.23
2018-07-23T18:34:01.777Z,5.87
2018-07-23T18:36:30.179Z,5.13
2018-07-23T18:38:58.552Z,3.93
2018-07-23T18:41:27.143Z,4.90
2018-07-23T18:43:55.568Z,5.57
2018-07-23T18:46:24.188Z,4.83
2018-07-23T18:49:30.410Z,4.57
2018-07-23T18:51:59.979Z,3.20
2018-07-23T18:54:30.290Z,4.60
2018-07-23T18:56:59.911Z,3.83
2018-07-23T18:59:28.303Z,3.80
2018-07-23T19:01:57.344Z,4.60
2018-07-23T19:04:26.259Z,4.63
2018-07-23T19:06:54.735Z,4.70
2018-07-23T19:09:24.291Z,4.27
2018-07-23T19:11:53.913Z,4.23
2018-07-23T19:14:22.572Z,3.27
2018-07-23T19:16:51.988Z,5.90
2018-07-23T19:19:20.081Z,3.77
2018-07-23T19:21:48.432Z,5.20
2018-07-23T19:24:16.811Z,4.53
2018-07-23T19:26:45.232Z,2.90
2018-07-23T19:29:14.584Z,4.07
2018-07-23T19:31:43.186Z,5.40
2018-07-23T19:34:11.831Z,4.50
2018-07-23T19:36:40.304Z,4.77
2018-07-23T19:39:10.569Z,7.03
2018-07-23T19:41:39.324Z,3.77
2018-07-23T19:44:09.627Z,5.53
2018-07-23T19:46:39.827Z,4.17
2018-07-23T19:49:19.850Z,4.70
2018-07-23T19:56:41.762Z,9.70
2018-07-23T19:59:18.978Z,4.97
2018-07-23T20:02:00.715Z,5.03
2018-07-23T20:05:05.959Z,9.47
2018-07-23T20:07:59.023Z,6.50
2018-07-23T20:10:40.630Z,4.80
2018-07-23T20:13:25.225Z,6.27
2018-07-23T20:16:17.735Z,9.37
2018-07-23T20:18:48.048Z,6.70
2018-07-23T20:21:17.243Z,13.00
2018-07-23T20:23:46.335Z,6.77
2018-07-23T20:26:16.115Z,13.90
2018-07-23T20:28:47.524Z,15.53
2018-07-23T20:31:16.798Z,10.50
2018-07-23T20:33:45.958Z,10.13
2018-07-23T20:36:15.480Z,9.97
2018-07-23T20:38:45.005Z,7.60
2018-07-23T20:41:17.074Z,8.67
2018-07-23T20:43:48.037Z,11.73
2018-07-23T20:46:16.763Z,8.40
2018-07-23T20:48:44.961Z,6.97
2018-07-23T20:51:13.528Z,7.30
2018-07-23T20:53:45.915Z,9.40
2018-07-23T20:56:15.440Z,10.33
2018-07-23T20:58:44.735Z,12.00
2018-07-23T21:01:13.896Z,10.67
2018-07-23T21:03:42.339Z,10.17
2018-07-23T21:06:30.895Z,7.67
2018-07-23T21:09:09.484Z,7.03
2018-07-23T21:11:56.257Z,7.60
2018-07-23T21:14:25.294Z,7.03
2018-07-23T21:16:54.011Z,6.57
2018-07-23T21:19:23.026Z,8.37
2018-07-23T21:24:56.476Z,6.10
2018-07-23T21:27:28.480Z,6.07
2018-07-23T21:30:00.099Z,8.30
2018-07-23T21:32:30.435Z,4.97
2018-07-23T21:35:01.117Z,4.73
2018-07-23T21:37:43.161Z,6.37
2018-07-23T21:40:12.554Z,5.40
2018-07-23T21:42:41.867Z,7.13
2018-07-23T21:45:10.910Z,6.27
2018-07-23T21:47:39.454Z,4.33
2018-07-23T21:50:17.528Z,6.13
2018-07-23T21:52:48.102Z,6.20
2018-07-23T21:55:38.755Z,5.70
2018-07-23T21:58:14.187Z,5.90
2018-07-23T22:00:42.857Z,6.97
2018-07-23T22:03:11.383Z,6.50
2018-07-23T22:05:40.312Z,4.73
2018-07-23T22:08:09.015Z,6.40
2018-07-23T22:10:37.396Z,5.57
2018-07-23T22:13:05.835Z,7.20
2018-07-23T22:15:34.763Z,4.57
2018-07-23T22:18:03.143Z,4.07
2018-07-23T22:20:31.577Z,4.10
2018-07-23T22:23:00.017Z,5.20
2018-07-23T22:25:28.621Z,7.67
2018-07-23T22:27:57.001Z,6.80
2018-07-23T22:30:25.128Z,4.47
2018-07-23T22:32:53.547Z,6.37
2018-07-23T22:35:22.520Z,4.63
2018-07-23T22:37:51.123Z,6.00
2018-07-23T22:40:19.509Z,8.53
2018-07-23T22:42:48.202Z,5.73
2018-07-23T22:45:16.582Z,6.43
2018-07-23T22:47:45.249Z,4.70
2018-07-23T22:50:13.623Z,7.47
2018-07-23T22:52:42.584Z,3.50
2018-07-23T22:55:11.004Z,7.93
2018-07-23T22:57:40.128Z,9.53
2018-07-23T23:00:08.572Z,6.20
2018-07-23T23:02:36.992Z,6.10
2018-07-23T23:05:05.393Z,8.10
2018-07-23T23:07:33.859Z,5.13
2018-07-23T23:10:02.963Z,5.90
2018-07-23T23:12:31.311Z,7.27
2018-07-23T23:15:00.516Z,6.80
2018-07-23T23:17:29.085Z,4.40
2018-07-23T23:19:57.473Z,4.37
2018-07-23T23:22:26.007Z,4.80
2018-07-23T23:24:54.571Z,6.23
2018-07-23T23:27:29.434Z,4.23
2018-07-23T23:29:57.876Z,5.33
2018-07-23T23:32:26.712Z,6.17
2018-07-23T23:34:55.118Z,5.17
2018-07-23T23:37:23.502Z,5.30
2018-07-23T23:39:51.890Z,5.87
2018-07-23T23:42:21.099Z,7.17
2018-07-23T23:44:49.576Z,5.63
2018-07-23T23:47:18.266Z,5.87
2018-07-23T23:49:46.679Z,5.33
2018-07-23T23:52:15.076Z,5.80
2018-07-23T23:54:43.504Z,5.40
2018-07-23T23:57:12.130Z,5.33
2018-07-23T23:59:41.151Z,7.50
